createdAt,value
2019-05-20T00:00:19.420Z,100514.92
2019-05-20T00:02:49.674Z,100524.30
2019-05-20T00:05:18.757Z,100525.56
2019-05-20T00:07:47.768Z,100525.56
2019-05-20T00:10:16.931Z,100519.84
2019-05-20T00:12:45.969Z,100519.84
2019-05-20T00:15:15.051Z,100523.41
2019-05-20T00:17:44.076Z,100523.41
2019-05-20T00:20:13.225Z,100521.43
2019-05-20T00:22:42.235Z,100517.42
2019-05-20T00:25:11.700Z,100516.62
2019-05-20T00:27:40.869Z,100512.16
2019-05-20T00:30:11.172Z,100512.16
2019-05-20T00:32:42.089Z,100514.68
2019-05-20T00:35:11.213Z,100512.28
2019-05-20T00:37:40.200Z,100516.62
2019-05-20T00:40:09.588Z,100512.66
2019-05-20T00:42:38.596Z,100520.06
2019-05-20T00:45:09.086Z,100509.42
2019-05-20T00:47:38.272Z,100502.19
2019-05-20T00:50:07.410Z,100502.56
2019-05-20T00:52:36.564Z,100503.77
2019-05-20T00:55:06.691Z,100502.03
2019-05-20T00:57:35.704Z,100495.20
2019-05-20T01:00:06.041Z,100495.20
2019-05-20T01:02:35.197Z,100495.44
2019-05-20T01:05:04.294Z,100502.27
2019-05-20T01:07:33.402Z,100494.49
2019-05-20T01:10:02.458Z,100496.20
2019-05-20T01:12:31.450Z,100497.77
2019-05-20T01:15:00.530Z,100497.77
2019-05-20T01:17:29.613Z,100493.58
2019-05-20T01:19:58.670Z,100494.79
2019-05-20T01:22:27.680Z,100499.38
2019-05-20T01:25:02.928Z,100508.48
2019-05-20T01:27:45.143Z,100504.50
2019-05-20T01:30:14.869Z,100504.50
2019-05-20T01:32:43.962Z,100511.08
2019-05-20T01:35:22.289Z,100506.28
2019-05-20T01:37:51.290Z,100510.67
2019-05-20T01:40:21.549Z,100506.83
2019-05-20T01:42:50.629Z,100498.92
2019-05-20T01:45:19.668Z,100495.78
2019-05-20T01:47:48.663Z,100491.65
2019-05-20T01:50:17.758Z,100491.65
2019-05-20T01:52:46.745Z,100489.78
2019-05-20T01:55:16.127Z,100493.88
2019-05-20T01:57:45.133Z,100496.41
2019-05-20T02:00:15.647Z,100503.56
2019-05-20T02:02:44.719Z,100504.05
2019-05-20T02:05:14.409Z,100504.05
2019-05-20T02:07:49.339Z,100498.84
2019-05-20T02:10:27.935Z,100504.42
2019-05-20T02:12:57.007Z,100502.86
2019-05-20T02:15:32.397Z,100500.95
2019-05-20T02:18:01.393Z,100506.03
2019-05-20T02:20:30.523Z,100499.55
2019-05-20T02:25:51.089Z,100493.58
2019-05-20T02:28:20.259Z,100496.15
2019-05-20T02:30:49.426Z,100495.57
2019-05-20T02:33:18.471Z,100490.44
2019-05-20T02:35:47.568Z,100493.20
2019-05-20T02:38:16.570Z,100494.20
2019-05-20T02:40:45.687Z,100497.94
2019-05-20T02:43:14.731Z,100496.23
2019-05-20T02:45:43.914Z,100508.69
2019-05-20T02:48:13.040Z,100509.14
2019-05-20T02:50:42.053Z,100497.05
2019-05-20T02:53:11.212Z,100512.28
2019-05-20T02:55:40.335Z,100510.05
2019-05-20T02:58:09.448Z,100506.16
2019-05-20T03:00:38.632Z,100506.16
2019-05-20T03:03:07.705Z,100508.59
2019-05-20T03:05:36.671Z,100506.91
2019-05-20T03:08:05.750Z,100514.15
2019-05-20T03:10:34.832Z,100514.15
2019-05-20T03:13:03.907Z,100512.03
2019-05-20T03:15:33.085Z,100512.03
2019-05-20T03:18:02.136Z,100512.98
2019-05-20T03:20:31.148Z,100508.80
2019-05-20T03:23:00.228Z,100510.88
2019-05-20T03:25:29.300Z,100509.80
2019-05-20T03:27:58.375Z,100516.28
2019-05-20T03:30:27.390Z,100518.32
2019-05-20T03:32:56.462Z,100518.20
2019-05-20T03:35:25.631Z,100523.20
2019-05-20T03:37:54.626Z,100522.79
2019-05-20T03:40:23.704Z,100531.22
2019-05-20T03:42:52.801Z,100527.81
2019-05-20T03:45:21.779Z,100531.39
2019-05-20T03:47:50.900Z,100531.39
2019-05-20T03:50:20.104Z,100525.09
2019-05-20T03:52:49.200Z,100517.82
2019-05-20T03:55:18.338Z,100521.08
2019-05-20T03:57:47.365Z,100523.45
2019-05-20T04:00:19.394Z,100523.45
2019-05-20T04:02:48.426Z,100522.24
2019-05-20T04:05:17.560Z,100527.24
2019-05-20T04:07:46.697Z,100515.96
2019-05-20T04:10:15.858Z,100519.22
2019-05-20T04:12:44.902Z,100520.05
2019-05-20T04:15:14.040Z,100523.64
2019-05-20T04:17:43.040Z,100496.44
2019-05-20T04:20:13.621Z,100531.84
2019-05-20T04:22:42.645Z,100540.17
2019-05-20T04:25:11.931Z,100540.17
2019-05-20T04:27:40.928Z,100539.22
2019-05-20T04:30:10.094Z,100539.22
2019-05-20T04:32:39.084Z,100526.59
2019-05-20T04:35:21.258Z,100530.93
2019-05-20T04:37:39.007Z,100528.37
2019-05-20T04:40:08.571Z,100529.70
2019-05-20T04:42:37.606Z,100529.70
2019-05-20T04:45:07.586Z,100534.34
2019-05-20T04:47:36.752Z,100534.69
2019-05-20T04:50:08.607Z,100532.76
2019-05-20T04:52:37.814Z,100544.34
2019-05-20T04:55:06.970Z,100547.61
2019-05-20T04:57:35.983Z,100535.61
2019-05-20T05:00:06.192Z,100544.84
2019-05-20T05:02:35.193Z,100542.86
2019-05-20T05:05:04.670Z,100551.28
2019-05-20T05:07:33.747Z,100550.95
2019-05-20T05:10:02.890Z,100550.95
2019-05-20T05:12:32.067Z,100545.77
2019-05-20T05:15:01.275Z,100548.39
2019-05-20T05:17:30.408Z,100553.31
2019-05-20T05:19:59.555Z,100551.26
2019-05-20T05:22:28.718Z,100549.64
2019-05-20T05:24:57.890Z,100555.39
2019-05-20T05:27:27.097Z,100558.33
2019-05-20T05:29:56.335Z,100560.89
2019-05-20T05:32:44.863Z,100557.12
2019-05-20T05:35:17.014Z,100556.34
2019-05-20T05:37:46.260Z,100556.70
2019-05-20T05:40:18.377Z,100557.80
2019-05-20T05:42:47.376Z,100563.70
2019-05-20T05:45:16.534Z,100564.68
2019-05-20T05:47:45.540Z,100564.68
2019-05-20T05:50:15.268Z,100554.53
2019-05-20T05:52:44.283Z,100554.84
2019-05-20T05:55:13.438Z,100552.98
2019-05-20T05:57:42.839Z,100555.77
2019-05-20T06:00:12.221Z,100566.45
2019-05-20T06:02:41.365Z,100566.45
2019-05-20T06:05:10.637Z,100575.09
2019-05-20T06:07:39.732Z,100575.34
2019-05-20T06:10:09.320Z,100566.11
2019-05-20T06:12:38.454Z,100567.81
2019-05-20T06:15:08.281Z,100566.06
2019-05-20T06:17:37.398Z,100566.48
2019-05-20T06:20:06.730Z,100566.65
2019-05-20T06:22:35.829Z,100567.97
2019-05-20T06:25:05.104Z,100567.48
2019-05-20T06:27:34.107Z,100568.93
2019-05-20T06:30:03.358Z,100571.78
2019-05-20T06:32:32.471Z,100571.78
2019-05-20T06:35:01.782Z,100570.98
2019-05-20T06:37:32.902Z,100577.25
2019-05-20T06:40:01.909Z,100581.38
2019-05-20T06:42:30.935Z,100581.38
2019-05-20T06:45:00.040Z,100571.16
2019-05-20T06:47:29.128Z,100577.41
2019-05-20T06:49:58.142Z,100575.97
2019-05-20T06:52:36.049Z,100580.59
2019-05-20T06:54:58.045Z,100588.47
2019-05-20T06:57:27.142Z,100590.92
2019-05-20T06:59:56.160Z,100595.12
2019-05-20T07:02:25.227Z,100597.45
2019-05-20T07:04:54.492Z,100598.16
2019-05-20T07:07:23.749Z,100598.62
2019-05-20T07:09:52.871Z,100601.64
2019-05-20T07:12:21.923Z,100592.05
2019-05-20T07:14:51.080Z,100586.70
2019-05-20T07:17:20.219Z,100592.81
2019-05-20T07:19:49.430Z,100595.23
2019-05-20T07:22:18.543Z,100591.56
2019-05-20T07:24:47.677Z,100595.88
2019-05-20T07:27:16.775Z,100595.88
2019-05-20T07:29:45.927Z,100587.38
2019-05-20T07:32:15.013Z,100596.16
2019-05-20T07:34:44.173Z,100599.78
2019-05-20T07:37:13.206Z,100599.78
2019-05-20T07:39:42.373Z,100605.27
2019-05-20T07:42:11.469Z,100602.31
2019-05-20T07:44:40.686Z,100605.70
2019-05-20T07:47:11.262Z,100605.70
2019-05-20T07:49:40.551Z,100596.48
2019-05-20T07:52:10.415Z,100611.13
2019-05-20T07:54:39.751Z,100605.34
2019-05-20T07:57:11.492Z,100605.22
2019-05-20T07:59:42.653Z,100594.72
2019-05-20T08:02:13.663Z,100601.23
2019-05-20T08:04:42.888Z,100594.58
2019-05-20T08:07:27.285Z,100591.34
2019-05-20T08:09:46.237Z,100596.28
2019-05-20T08:12:13.900Z,100595.70
2019-05-20T08:14:43.096Z,100597.92
2019-05-20T08:17:12.269Z,100592.89
2019-05-20T08:19:41.358Z,100598.72
2019-05-20T08:22:10.502Z,100601.89
2019-05-20T08:24:39.616Z,100596.98
2019-05-20T08:27:08.736Z,100604.45
2019-05-20T08:29:37.949Z,100614.61
2019-05-20T08:32:08.389Z,100619.63
2019-05-20T08:34:38.484Z,100619.63
2019-05-20T08:37:08.444Z,100629.55
2019-05-20T08:39:37.579Z,100629.55
2019-05-20T08:42:06.743Z,100633.65
2019-05-20T08:44:35.887Z,100630.64
2019-05-20T08:47:05.099Z,100630.64
2019-05-20T08:49:34.671Z,100632.03
2019-05-20T08:52:04.278Z,100630.16
2019-05-20T08:54:33.804Z,100630.16
2019-05-20T08:57:02.948Z,100632.52
2019-05-20T08:59:32.179Z,100637.88
2019-05-20T09:02:01.381Z,100630.83
2019-05-20T09:04:30.584Z,100630.83
2019-05-20T09:06:59.579Z,100629.00
2019-05-20T09:09:28.755Z,100629.00
2019-05-20T09:11:58.012Z,100629.66
2019-05-20T09:14:27.138Z,100634.94
2019-05-20T09:16:56.259Z,100637.62
2019-05-20T09:19:25.440Z,100633.77
2019-05-20T09:21:54.530Z,100633.40
2019-05-20T09:24:23.919Z,100635.42
2019-05-20T09:26:53.032Z,100638.45
2019-05-20T09:29:22.167Z,100637.97
2019-05-20T09:31:51.398Z,100637.97
2019-05-20T09:34:20.720Z,100638.31
2019-05-20T09:36:49.947Z,100641.12
2019-05-20T09:39:19.060Z,100636.33
2019-05-20T09:41:48.180Z,100636.33
2019-05-20T09:44:17.326Z,100636.82
2019-05-20T09:46:46.593Z,100639.25
2019-05-20T09:49:15.720Z,100640.28
2019-05-20T09:51:44.789Z,100639.50
2019-05-20T09:54:13.807Z,100646.16
2019-05-20T09:56:42.897Z,100643.70
2019-05-20T09:59:11.968Z,100651.90
2019-05-20T10:01:41.149Z,100658.42
2019-05-20T10:04:10.345Z,100658.42
2019-05-20T10:06:39.510Z,100653.97
2019-05-20T10:09:08.768Z,100663.69
2019-05-20T10:11:37.950Z,100657.15
2019-05-20T10:14:07.096Z,100657.15
2019-05-20T10:16:36.188Z,100667.21
2019-05-20T10:19:05.334Z,100670.59
2019-05-20T10:21:34.435Z,100670.59
2019-05-20T10:24:03.639Z,100665.70
2019-05-20T10:26:32.964Z,100669.55
2019-05-20T10:29:02.090Z,100671.76
2019-05-20T10:31:31.188Z,100669.77
2019-05-20T10:34:00.406Z,100674.93
2019-05-20T10:36:29.567Z,100673.77
2019-05-20T10:38:59.639Z,100677.37
2019-05-20T10:41:29.753Z,100678.55
2019-05-20T10:43:58.922Z,100672.84
2019-05-20T10:46:28.007Z,100676.11
2019-05-20T10:48:57.027Z,100678.77
2019-05-20T10:51:26.328Z,100680.20
2019-05-20T10:53:55.376Z,100680.09
2019-05-20T10:56:24.498Z,100684.87
2019-05-20T10:58:53.515Z,100684.98
2019-05-20T11:01:22.703Z,100689.76
2019-05-20T11:03:51.727Z,100690.11
2019-05-20T11:06:20.825Z,100690.11
2019-05-20T11:08:49.936Z,100696.66
2019-05-20T11:11:19.005Z,100692.82
2019-05-20T11:13:48.030Z,100706.16
2019-05-20T11:16:17.145Z,100699.62
2019-05-20T11:18:46.134Z,100700.78
2019-05-20T11:21:15.287Z,100699.23
2019-05-20T11:23:44.486Z,100700.75
2019-05-20T11:26:14.710Z,100703.23
2019-05-20T11:28:43.889Z,100696.10
2019-05-20T11:31:13.043Z,100697.72
2019-05-20T11:33:42.300Z,100697.72
2019-05-20T11:36:11.492Z,100694.66
2019-05-20T11:38:40.563Z,100690.89
2019-05-20T11:41:09.701Z,100691.02
2019-05-20T11:43:38.823Z,100689.47
2019-05-20T11:46:07.968Z,100692.50
2019-05-20T11:48:37.178Z,100690.63
2019-05-20T11:51:06.447Z,100691.09
2019-05-20T11:53:35.661Z,100691.09
2019-05-20T11:56:05.057Z,100703.59
2019-05-20T11:58:34.094Z,100704.45
2019-05-20T12:01:03.198Z,100709.75
2019-05-20T12:03:32.318Z,100706.95
2019-05-20T12:06:01.395Z,100701.30
2019-05-20T12:08:30.600Z,100710.50
2019-05-20T12:10:59.741Z,100699.65
2019-05-20T12:13:28.767Z,100707.05
2019-05-20T12:15:57.885Z,100707.05
2019-05-20T12:18:26.895Z,100715.14
2019-05-20T12:20:56.017Z,100716.04
2019-05-20T12:23:25.144Z,100712.97
2019-05-20T12:25:54.191Z,100704.01
2019-05-20T12:28:23.309Z,100705.72
2019-05-20T12:30:52.510Z,100715.66
2019-05-20T12:33:21.601Z,100710.18
2019-05-20T12:35:50.681Z,100713.77
2019-05-20T12:38:19.830Z,100717.61
2019-05-20T12:40:48.835Z,100729.58
2019-05-20T12:43:18.003Z,100732.11
2019-05-20T12:45:47.149Z,100726.23
2019-05-20T12:48:16.294Z,100726.23
2019-05-20T12:50:45.433Z,100719.79
2019-05-20T12:53:14.519Z,100722.73
2019-05-20T12:55:43.615Z,100721.70
2019-05-20T12:58:12.711Z,100724.05
2019-05-20T13:00:41.746Z,100722.08
2019-05-20T13:03:10.858Z,100727.70
2019-05-20T13:05:39.997Z,100723.00
2019-05-20T13:08:09.351Z,100729.54
2019-05-20T13:10:38.422Z,100728.77
2019-05-20T13:13:07.468Z,100728.77
2019-05-20T13:15:36.547Z,100722.25
2019-05-20T13:18:05.717Z,100721.13
2019-05-20T13:20:36.348Z,100721.13
2019-05-20T13:23:07.792Z,100712.13
2019-05-20T13:25:36.275Z,100712.13
2019-05-20T13:28:05.439Z,100717.09
2019-05-20T13:30:34.484Z,100717.30
2019-05-20T13:33:03.572Z,100713.91
2019-05-20T13:35:32.607Z,100713.91
2019-05-20T13:38:01.864Z,100717.17
2019-05-20T13:40:44.985Z,100717.17
2019-05-20T13:43:01.677Z,100714.95
2019-05-20T13:45:30.721Z,100715.97
2019-05-20T13:47:59.735Z,100715.97
2019-05-20T13:50:28.879Z,100713.23
2019-05-20T13:52:57.915Z,100713.23
2019-05-20T13:55:27.110Z,100711.73
2019-05-20T13:57:56.219Z,100715.59
2019-05-20T14:00:25.741Z,100715.09
2019-05-20T14:02:54.913Z,100702.24
2019-05-20T14:05:24.150Z,100720.43
2019-05-20T14:07:53.230Z,100719.08
2019-05-20T14:10:22.376Z,100722.55
2019-05-20T14:12:51.371Z,100717.68
2019-05-20T14:15:20.458Z,100721.64
2019-05-20T14:17:49.449Z,100721.87
2019-05-20T14:20:18.593Z,100729.29
2019-05-20T14:22:47.698Z,100729.97
2019-05-20T14:25:16.816Z,100729.15
2019-05-20T14:27:45.863Z,100727.54
2019-05-20T14:30:15.426Z,100727.54
2019-05-20T14:32:44.604Z,100734.61
2019-05-20T14:35:14.095Z,100737.16
2019-05-20T14:37:43.240Z,100731.72
2019-05-20T14:40:12.914Z,100733.91
2019-05-20T14:42:42.059Z,100742.86
2019-05-20T14:45:11.467Z,100742.20
2019-05-20T14:47:40.492Z,100743.62
2019-05-20T14:50:10.512Z,100747.58
2019-05-20T14:52:39.643Z,100742.80
2019-05-20T14:55:09.009Z,100747.58
2019-05-20T14:57:38.113Z,100747.58
2019-05-20T15:00:07.467Z,100743.95
2019-05-20T15:02:36.693Z,100743.11
2019-05-20T15:05:06.262Z,100746.18
2019-05-20T15:07:35.348Z,100742.59
2019-05-20T15:10:05.255Z,100740.47
2019-05-20T15:12:34.381Z,100749.56
2019-05-20T15:15:03.498Z,100748.84
2019-05-20T15:17:32.570Z,100756.98
2019-05-20T15:20:01.661Z,100749.54
2019-05-20T15:22:30.787Z,100746.97
2019-05-20T15:24:59.886Z,100742.28
2019-05-20T15:27:29.023Z,100739.11
2019-05-20T15:29:58.259Z,100747.55
2019-05-20T15:32:27.364Z,100750.08
2019-05-20T15:34:56.395Z,100756.16
2019-05-20T15:37:25.422Z,100759.00
2019-05-20T15:39:54.541Z,100752.06
2019-05-20T15:42:23.643Z,100756.90
2019-05-20T15:44:52.875Z,100756.48
2019-05-20T15:47:22.102Z,100756.48
2019-05-20T15:49:51.159Z,100754.27
2019-05-20T15:52:20.277Z,100748.58
2019-05-20T15:54:49.392Z,100750.72
2019-05-20T15:57:18.492Z,100762.05
2019-05-20T15:59:47.691Z,100750.17
2019-05-20T16:02:16.839Z,100748.98
2019-05-20T16:04:45.877Z,100753.33
2019-05-20T16:07:14.950Z,100751.59
2019-05-20T16:09:44.023Z,100747.67
2019-05-20T16:12:13.212Z,100749.00
2019-05-20T16:14:42.213Z,100748.59
2019-05-20T16:17:11.298Z,100746.11
2019-05-20T16:19:40.329Z,100747.53
2019-05-20T16:22:09.542Z,100747.53
2019-05-20T16:24:39.117Z,100755.72
2019-05-20T16:27:08.222Z,100752.42
2019-05-20T16:29:37.302Z,100753.24
2019-05-20T16:32:06.438Z,100753.22
2019-05-20T16:34:35.624Z,100753.22
2019-05-20T16:37:05.530Z,100756.41
2019-05-20T16:39:34.797Z,100750.18
2019-05-20T16:42:03.942Z,100752.78
2019-05-20T16:44:33.037Z,100752.78
2019-05-20T16:47:02.116Z,100754.00
2019-05-20T16:49:31.260Z,100754.80
2019-05-20T16:52:03.506Z,100750.70
2019-05-20T16:54:32.525Z,100748.03
2019-05-20T16:57:01.511Z,100744.66
2019-05-20T16:59:30.601Z,100749.44
2019-05-20T17:01:59.706Z,100752.70
2019-05-20T17:04:28.767Z,100756.18
2019-05-20T17:06:57.847Z,100752.14
2019-05-20T17:09:26.992Z,100753.53
2019-05-20T17:11:56.112Z,100758.22
2019-05-20T17:14:25.178Z,100766.27
2019-05-20T17:16:54.412Z,100761.84
2019-05-20T17:19:23.436Z,100766.53
2019-05-20T17:21:52.603Z,100767.45
2019-05-20T17:24:21.719Z,100769.16
2019-05-20T17:26:50.859Z,100769.16
2019-05-20T17:29:20.073Z,100771.11
2019-05-20T17:31:50.345Z,100766.01
2019-05-20T17:34:19.436Z,100766.95
2019-05-20T17:36:48.739Z,100762.03
2019-05-20T17:39:17.942Z,100758.52
2019-05-20T17:41:47.044Z,100762.97
2019-05-20T17:44:16.395Z,100760.64
2019-05-20T17:46:45.472Z,100762.75
2019-05-20T17:49:14.552Z,100762.75
2019-05-20T17:51:43.761Z,100761.09
2019-05-20T17:54:12.960Z,100760.75
2019-05-20T17:56:42.244Z,100765.66
2019-05-20T17:59:11.273Z,100767.32
2019-05-20T18:01:40.383Z,100766.84
2019-05-20T18:04:09.485Z,100762.93
2019-05-20T18:06:38.535Z,100765.53
2019-05-20T18:09:11.613Z,100770.55
2019-05-20T18:11:41.754Z,100770.30
2019-05-20T18:14:10.992Z,100776.25
2019-05-20T18:16:40.042Z,100771.21
2019-05-20T18:19:09.480Z,100784.36
2019-05-20T18:21:38.490Z,100781.50
2019-05-20T18:24:07.636Z,100795.14
2019-05-20T18:26:36.731Z,100795.88
2019-05-20T18:29:06.047Z,100796.09
2019-05-20T18:31:35.184Z,100812.86
2019-05-20T18:34:04.310Z,100811.16
2019-05-20T18:36:33.394Z,100817.49
2019-05-20T18:39:02.399Z,100817.91
2019-05-20T18:41:31.602Z,100828.07
2019-05-20T18:44:00.768Z,100828.07
2019-05-20T18:46:29.780Z,100834.73
2019-05-20T18:48:58.818Z,100840.04
2019-05-20T18:51:27.976Z,100836.46
2019-05-20T18:53:57.131Z,100840.06
2019-05-20T18:56:26.149Z,100842.79
2019-05-20T18:58:55.428Z,100836.95
2019-05-20T19:01:24.519Z,100839.44
2019-05-20T19:03:53.586Z,100839.44
2019-05-20T19:06:22.894Z,100847.52
2019-05-20T19:08:52.041Z,100846.80
2019-05-20T19:11:21.284Z,100841.03
2019-05-20T19:13:50.444Z,100842.23
2019-05-20T19:16:19.536Z,100838.84
2019-05-20T19:18:48.759Z,100845.83
2019-05-20T19:21:17.812Z,100839.05
2019-05-20T19:23:47.054Z,100849.59
2019-05-20T19:26:24.298Z,100841.44
2019-05-20T19:28:47.051Z,100848.62
2019-05-20T19:31:16.192Z,100850.59
2019-05-20T19:33:45.269Z,100854.84
2019-05-20T19:36:14.597Z,100859.94
2019-05-20T19:38:43.755Z,100870.98
2019-05-20T19:41:12.795Z,100848.70
2019-05-20T19:43:42.223Z,100881.39
2019-05-20T19:46:11.335Z,100885.25
2019-05-20T19:48:40.554Z,100878.51
2019-05-20T19:51:09.684Z,100877.59
2019-05-20T19:53:38.755Z,100877.91
2019-05-20T19:56:07.934Z,100877.23
2019-05-20T19:58:36.947Z,100877.71
2019-05-20T20:01:06.396Z,100885.53
2019-05-20T20:03:35.449Z,100892.98
2019-05-20T20:06:04.745Z,100892.98
2019-05-20T20:08:36.348Z,100892.42
2019-05-20T20:11:05.593Z,100888.27
2019-05-20T20:13:34.801Z,100884.98
2019-05-20T20:16:03.838Z,100874.72
2019-05-20T20:18:32.847Z,100881.88
2019-05-20T20:21:02.012Z,100890.80
2019-05-20T20:23:31.069Z,100891.30
2019-05-20T20:26:00.135Z,100889.83
2019-05-20T20:28:29.145Z,100889.28
2019-05-20T20:30:58.306Z,100889.28
2019-05-20T20:33:27.446Z,100883.85
2019-05-20T20:35:56.488Z,100892.08
2019-05-20T20:38:25.536Z,100896.14
2019-05-20T20:40:54.590Z,100896.14
2019-05-20T20:43:23.767Z,100906.94
2019-05-20T20:45:52.799Z,100904.17
2019-05-20T20:48:21.821Z,100917.91
2019-05-20T20:50:50.899Z,100917.91
2019-05-20T20:53:23.491Z,100912.47
2019-05-20T20:55:53.421Z,100912.47
2019-05-20T20:58:31.616Z,100912.50
2019-05-20T21:01:01.265Z,100912.50
2019-05-20T21:03:30.710Z,100924.84
2019-05-20T21:06:08.048Z,100930.28
2019-05-20T21:08:38.899Z,100937.98
2019-05-20T21:11:07.991Z,100927.20
2019-05-20T21:13:36.977Z,100935.45
2019-05-20T21:16:06.929Z,100939.26
2019-05-20T21:18:35.901Z,100936.78
2019-05-20T21:21:05.032Z,100940.12
2019-05-20T21:23:34.002Z,100940.12
2019-05-20T21:26:03.018Z,100943.06
2019-05-20T21:28:32.007Z,100949.57
2019-05-20T21:31:01.019Z,100946.20
2019-05-20T21:33:30.015Z,100954.83
2019-05-20T21:35:59.043Z,100946.17
2019-05-20T21:38:28.040Z,100946.17
2019-05-20T21:40:57.076Z,100952.56
2019-05-20T21:43:26.089Z,100953.75
2019-05-20T21:45:55.096Z,100958.42
2019-05-20T21:48:24.120Z,100962.16
2019-05-20T21:50:53.132Z,100962.27
2019-05-20T21:53:22.143Z,100959.88
2019-05-20T21:55:52.465Z,100958.80
2019-05-20T21:58:21.519Z,100957.98
2019-05-20T22:00:53.542Z,100956.35
2019-05-20T22:03:24.795Z,100956.98
2019-05-20T22:05:54.796Z,100922.06
2019-05-20T22:08:23.969Z,100951.06
2019-05-20T22:10:53.172Z,100951.95
2019-05-20T22:13:22.204Z,100946.00
2019-05-20T22:15:51.355Z,100936.49
2019-05-20T22:18:20.383Z,100936.49
2019-05-20T22:20:49.452Z,100937.95
2019-05-20T22:23:25.707Z,100934.77
2019-05-20T22:25:54.791Z,100930.64
2019-05-20T22:28:23.806Z,100932.75
2019-05-20T22:30:52.813Z,100926.97
2019-05-20T22:33:38.830Z,100924.97
2019-05-20T22:35:57.205Z,100924.97
2019-05-20T22:38:26.254Z,100921.95
2019-05-20T22:40:55.323Z,100916.01
2019-05-20T22:43:24.354Z,100922.24
2019-05-20T22:45:53.475Z,100914.00
2019-05-20T22:48:22.660Z,100917.95
2019-05-20T22:50:51.751Z,100917.40
2019-05-20T22:53:23.489Z,100919.05
2019-05-20T22:55:52.517Z,100916.12
2019-05-20T22:58:21.519Z,100918.95
2019-05-20T23:00:50.591Z,100919.68
2019-05-20T23:03:19.632Z,100922.06
2019-05-20T23:05:48.736Z,100922.06
2019-05-20T23:08:17.695Z,100922.80
2019-05-20T23:10:46.770Z,100924.25
2019-05-20T23:13:15.942Z,100933.11
2019-05-20T23:15:44.958Z,100927.01
2019-05-20T23:18:13.943Z,100924.25
2019-05-20T23:20:42.922Z,100922.24
2019-05-20T23:23:11.919Z,100928.36
2019-05-20T23:25:40.985Z,100927.01
2019-05-20T23:28:10.069Z,100927.01
2019-05-20T23:30:39.231Z,100929.57
2019-05-20T23:33:08.233Z,100938.53
2019-05-20T23:35:37.256Z,100935.31
2019-05-20T23:38:06.300Z,100936.70
2019-05-20T23:40:35.397Z,100939.05
2019-05-20T23:43:04.521Z,100932.66
2019-05-20T23:45:33.490Z,100927.73
2019-05-20T23:48:02.551Z,100921.34
2019-05-20T23:50:31.637Z,100921.34
2019-05-20T23:53:00.671Z,100929.02
2019-05-20T23:55:29.676Z,100926.25
2019-05-20T23:57:58.663Z,100930.20
